createdAt,value
2019-05-28T00:30:29.754Z,17.30
2019-05-28T00:31:39.005Z,17.32
2019-05-28T00:32:42.207Z,18.82
2019-05-28T00:33:45.219Z,17.50
2019-05-28T00:34:48.276Z,18.32
2019-05-28T00:47:52.644Z,19.48
2019-05-28T00:48:58.693Z,18.55
2019-05-28T00:50:04.823Z,18.60
2019-05-28T00:51:08.700Z,17.45
2019-05-28T00:52:11.757Z,19.20
2019-05-28T00:53:20.340Z,18.20
2019-05-28T00:54:24.316Z,18.25
2019-05-28T00:55:27.835Z,17.87
2019-05-28T00:56:31.770Z,19.05
2019-05-28T00:57:34.783Z,17.40
2019-05-28T00:58:38.104Z,18.05
2019-05-28T00:59:42.720Z,17.75
2019-05-28T01:00:47.676Z,18.62
2019-05-28T01:01:50.675Z,18.35
2019-05-28T01:02:53.613Z,18.15
2019-05-28T01:03:56.574Z,19.35
2019-05-28T01:04:59.536Z,17.98
2019-05-28T01:06:02.472Z,18.05
2019-05-28T01:07:05.421Z,18.23
2019-05-28T01:08:08.410Z,17.62
2019-05-28T01:09:11.378Z,16.70
2019-05-28T01:10:14.440Z,17.25
2019-05-28T01:11:17.416Z,16.82
2019-05-28T01:12:20.460Z,17.87
2019-05-28T01:13:23.489Z,17.27
2019-05-28T01:14:26.452Z,16.42
2019-05-28T01:15:29.535Z,16.40
2019-05-28T01:16:32.474Z,16.87
2019-05-28T01:17:35.412Z,18.23
2019-05-28T01:18:38.367Z,17.12
2019-05-28T01:19:41.321Z,21.12
2019-05-28T01:20:45.362Z,16.80
2019-05-28T01:21:48.297Z,15.90
2019-05-28T01:22:51.289Z,16.60
2019-05-28T01:23:54.256Z,18.02
2019-05-28T01:24:57.204Z,16.65
2019-05-28T01:26:00.191Z,16.23
2019-05-28T01:27:03.226Z,16.17
2019-05-28T01:28:06.148Z,19.10
2019-05-28T01:29:09.233Z,15.45
2019-05-28T01:30:12.555Z,16.87
2019-05-28T01:31:15.517Z,15.83
2019-05-28T01:32:18.600Z,15.90
2019-05-28T01:33:21.820Z,16.45
2019-05-28T01:34:25.050Z,16.15
2019-05-28T01:35:28.044Z,16.27
2019-05-28T01:36:31.004Z,16.60
2019-05-28T01:37:33.947Z,16.80
2019-05-28T01:38:36.921Z,16.62
2019-05-28T01:39:39.862Z,16.85
2019-05-28T01:40:42.908Z,16.35
2019-05-28T01:41:45.928Z,16.02
2019-05-28T01:42:48.913Z,15.35
2019-05-28T01:43:51.873Z,17.12
2019-05-28T01:44:54.821Z,15.30
2019-05-28T01:45:57.815Z,16.02
2019-05-28T01:47:00.710Z,15.83
2019-05-28T01:48:03.730Z,16.57
2019-05-28T01:49:06.621Z,16.00
2019-05-28T01:50:09.821Z,16.67
2019-05-28T01:51:12.789Z,16.02
2019-05-28T01:52:15.708Z,15.98
2019-05-28T01:53:18.617Z,15.80
2019-05-28T01:54:21.520Z,15.08
2019-05-28T01:55:24.438Z,16.75
2019-05-28T01:56:27.265Z,18.70
2019-05-28T01:57:30.243Z,15.93
2019-05-28T01:58:33.129Z,16.93
2019-05-28T01:59:36.040Z,16.50
2019-05-28T02:00:38.931Z,18.98
2019-05-28T02:01:41.886Z,15.98
2019-05-28T02:02:44.859Z,15.95
2019-05-28T02:03:47.796Z,17.23
2019-05-28T02:04:50.891Z,17.30
2019-05-28T02:05:53.854Z,17.60
2019-05-28T02:06:56.797Z,16.80
2019-05-28T02:07:59.721Z,17.25
2019-05-28T02:09:03.605Z,16.27
2019-05-28T02:10:06.877Z,16.97
2019-05-28T02:11:09.910Z,17.82
2019-05-28T02:12:12.821Z,17.52
2019-05-28T02:13:15.743Z,19.42
2019-05-28T02:14:18.664Z,18.65
2019-05-28T02:15:22.020Z,18.27
2019-05-28T02:16:25.039Z,17.95
2019-05-28T02:17:27.956Z,16.35
2019-05-28T02:18:30.926Z,17.98
2019-05-28T02:19:33.870Z,18.87
2019-05-28T02:20:36.764Z,20.48
2019-05-28T02:21:39.744Z,19.10
2019-05-28T02:22:42.671Z,18.48
2019-05-28T02:23:45.847Z,17.92
2019-05-28T02:24:49.661Z,19.82
2019-05-28T02:25:52.572Z,19.27
2019-05-28T02:26:55.572Z,19.57
2019-05-28T02:27:58.545Z,19.23
2019-05-28T02:29:01.520Z,18.92
2019-05-28T02:30:05.686Z,23.35
2019-05-28T02:31:08.773Z,19.70
2019-05-28T02:32:11.678Z,20.70
2019-05-28T02:33:14.697Z,21.25
2019-05-28T02:34:17.585Z,19.77
2019-05-28T02:35:22.501Z,20.92
2019-05-28T02:36:25.400Z,19.75
2019-05-28T02:37:28.301Z,18.82
2019-05-28T02:38:31.274Z,19.95
2019-05-28T02:39:34.173Z,19.50
2019-05-28T02:40:37.065Z,21.00
2019-05-28T02:41:39.960Z,19.82
2019-05-28T02:42:42.879Z,19.57
2019-05-28T02:43:45.794Z,20.48
2019-05-28T02:44:48.589Z,18.90
2019-05-28T02:45:51.857Z,21.35
2019-05-28T02:46:54.737Z,20.30
2019-05-28T02:47:57.635Z,18.98
2019-05-28T02:49:00.621Z,17.75
2019-05-28T02:50:04.191Z,17.25
2019-05-28T02:51:07.104Z,19.82
2019-05-28T02:52:10.046Z,19.55
2019-05-28T02:53:12.973Z,20.62
2019-05-28T02:54:16.045Z,21.37
2019-05-28T02:55:19.040Z,20.70
2019-05-28T02:56:25.285Z,18.62
2019-05-28T02:57:29.393Z,18.32
2019-05-28T02:58:34.739Z,20.75
2019-05-28T02:59:38.006Z,17.90
2019-05-28T03:00:42.924Z,19.40
2019-05-28T03:01:49.490Z,19.02
2019-05-28T03:02:52.791Z,20.15
2019-05-28T03:03:58.958Z,20.25
2019-05-28T03:05:05.631Z,19.42
2019-05-28T03:06:12.193Z,20.20
2019-05-28T03:07:15.354Z,18.50
2019-05-28T03:08:22.780Z,19.35
2019-05-28T03:09:25.922Z,23.95
2019-05-28T03:10:59.614Z,18.37
2019-05-28T03:11:39.861Z,18.15
2019-05-28T03:12:43.015Z,17.50
2019-05-28T03:13:45.901Z,19.82
2019-05-28T03:14:48.856Z,19.87
2019-05-28T03:15:54.498Z,17.82
2019-05-28T03:17:01.047Z,17.95
2019-05-28T03:18:06.355Z,18.05
2019-05-28T03:19:10.056Z,19.27
2019-05-28T03:20:13.810Z,17.98
2019-05-28T03:21:17.521Z,18.92
2019-05-28T03:22:21.607Z,17.35
2019-05-28T03:23:26.597Z,19.37
2019-05-28T03:24:31.590Z,18.62
2019-05-28T03:25:37.880Z,17.55
2019-05-28T03:26:40.874Z,17.67
2019-05-28T03:27:43.783Z,16.77
2019-05-28T03:28:46.797Z,16.80
2019-05-28T03:29:49.952Z,19.00
2019-05-28T03:30:52.858Z,19.42
2019-05-28T03:32:08.025Z,17.45
2019-05-28T03:33:00.546Z,19.25
2019-05-28T03:34:03.615Z,16.50
2019-05-28T03:35:06.669Z,17.12
2019-05-28T03:36:11.481Z,19.57
2019-05-28T03:37:16.502Z,19.87
2019-05-28T03:38:20.426Z,18.27
2019-05-28T03:39:25.541Z,20.43
2019-05-28T03:40:41.183Z,18.30
2019-05-28T03:41:44.110Z,18.17
2019-05-28T03:42:49.817Z,17.00
2019-05-28T03:43:52.753Z,19.02
2019-05-28T03:44:55.658Z,19.70
2019-05-28T03:45:59.700Z,19.67
2019-05-28T03:47:02.710Z,18.75
2019-05-28T03:48:05.630Z,18.35
2019-05-28T03:49:08.658Z,20.77
2019-05-28T03:50:11.790Z,22.20
2019-05-28T03:51:14.822Z,20.30
2019-05-28T03:52:17.789Z,20.60
2019-05-28T03:53:20.753Z,22.58
2019-05-28T03:54:23.657Z,21.02
2019-05-28T03:55:26.593Z,21.48
2019-05-28T03:56:29.524Z,19.77
2019-05-28T03:57:32.518Z,20.17
2019-05-28T03:58:36.450Z,20.97
2019-05-28T03:59:39.368Z,21.25
2019-05-28T04:00:42.280Z,20.90
2019-05-28T04:01:45.181Z,22.30
2019-05-28T04:02:48.089Z,22.20
2019-05-28T04:03:51.029Z,22.85
2019-05-28T04:04:54.081Z,19.67
2019-05-28T04:05:56.994Z,21.75
2019-05-28T04:06:59.914Z,21.40
2019-05-28T04:08:02.868Z,22.65
2019-05-28T04:09:07.366Z,20.08
2019-05-28T04:10:10.464Z,23.10
2019-05-28T04:11:13.412Z,23.47
2019-05-28T04:12:16.300Z,22.90
2019-05-28T04:13:19.310Z,24.05
2019-05-28T04:14:22.269Z,22.67
2019-05-28T04:15:25.165Z,24.43
2019-05-28T04:16:28.068Z,24.80
2019-05-28T04:17:30.991Z,26.40
2019-05-28T04:18:33.900Z,26.97
2019-05-28T04:19:36.809Z,24.57
2019-05-28T04:20:39.719Z,24.60
2019-05-28T04:21:42.622Z,26.95
2019-05-28T04:22:45.533Z,26.93
2019-05-28T04:23:48.362Z,25.32
2019-05-28T04:24:51.378Z,24.02
2019-05-28T04:25:54.486Z,27.10
2019-05-28T04:26:57.527Z,28.38
2019-05-28T04:28:00.456Z,28.12
2019-05-28T04:29:03.501Z,27.37
2019-05-28T04:30:06.758Z,27.73
2019-05-28T04:31:12.462Z,29.20
2019-05-28T04:32:15.532Z,28.98
2019-05-28T04:33:18.356Z,28.70
2019-05-28T04:34:21.313Z,29.65
2019-05-28T04:35:24.374Z,30.00
2019-05-28T04:36:27.290Z,28.38
2019-05-28T04:37:30.185Z,27.25
2019-05-28T04:38:33.087Z,27.85
2019-05-28T04:39:36.032Z,28.85
2019-05-28T04:40:38.949Z,27.37
2019-05-28T04:41:41.892Z,22.05
2019-05-28T04:42:44.801Z,24.85
2019-05-28T04:43:47.694Z,24.92
2019-05-28T04:44:50.686Z,24.37
2019-05-28T04:45:53.669Z,23.90
2019-05-28T04:46:56.666Z,23.87
2019-05-28T04:47:59.599Z,23.42
2019-05-28T04:49:02.512Z,20.50
2019-05-28T04:50:05.799Z,19.37
2019-05-28T04:51:08.918Z,20.88
2019-05-28T04:52:11.817Z,17.90
2019-05-28T04:53:14.723Z,19.67
2019-05-28T04:54:17.617Z,18.23
2019-05-28T04:55:20.532Z,16.35
2019-05-28T04:56:23.477Z,15.25
2019-05-28T04:57:26.412Z,16.12
2019-05-28T04:58:29.294Z,17.40
2019-05-28T04:59:32.193Z,19.05
2019-05-28T05:00:35.109Z,18.98
2019-05-28T05:01:38.158Z,16.97
2019-05-28T05:02:57.818Z,19.87
2019-05-28T05:03:47.546Z,17.25
2019-05-28T05:04:50.533Z,16.75
2019-05-28T05:05:53.505Z,16.67
2019-05-28T05:06:56.462Z,16.40
2019-05-28T05:07:59.791Z,15.32
2019-05-28T05:09:03.917Z,16.40
2019-05-28T05:10:07.070Z,17.27
2019-05-28T05:11:10.236Z,17.87
2019-05-28T05:12:13.167Z,17.60
2019-05-28T05:13:16.114Z,16.37
2019-05-28T05:14:19.078Z,17.82
2019-05-28T05:15:21.980Z,16.57
2019-05-28T05:16:24.894Z,15.85
2019-05-28T05:17:27.956Z,13.72
2019-05-28T05:18:30.825Z,17.65
2019-05-28T05:19:33.646Z,15.48
2019-05-28T05:20:36.437Z,14.40
2019-05-28T05:21:39.458Z,14.18
2019-05-28T05:22:42.409Z,13.38
2019-05-28T05:23:48.435Z,11.65
2019-05-28T05:24:51.393Z,13.15
2019-05-28T05:25:55.317Z,14.55
2019-05-28T05:26:58.250Z,13.18
2019-05-28T05:28:01.197Z,12.60
2019-05-28T05:29:04.114Z,12.13
2019-05-28T05:30:07.321Z,13.58
2019-05-28T05:31:10.305Z,17.80
2019-05-28T05:32:13.229Z,13.90
2019-05-28T05:33:20.480Z,15.13
2019-05-28T05:34:21.106Z,11.08
2019-05-28T05:35:24.061Z,11.22
2019-05-28T05:36:27.049Z,12.25
2019-05-28T05:37:30.037Z,10.68
2019-05-28T05:38:33.016Z,12.98
2019-05-28T05:39:35.912Z,11.38
2019-05-28T05:40:38.712Z,11.25
2019-05-28T05:41:41.701Z,9.60
2019-05-28T05:42:44.641Z,11.12
2019-05-28T05:43:47.556Z,11.73
2019-05-28T05:44:50.754Z,14.00
2019-05-28T05:45:53.694Z,14.45
2019-05-28T05:46:56.613Z,10.15
2019-05-28T05:47:59.506Z,8.43
2019-05-28T05:49:02.550Z,9.63
2019-05-28T05:50:05.737Z,11.48
2019-05-28T05:51:08.666Z,9.50
2019-05-28T05:52:11.858Z,6.67
2019-05-28T05:53:14.763Z,10.35
2019-05-28T05:54:20.437Z,8.98
2019-05-28T05:55:23.428Z,11.60
2019-05-28T05:56:26.495Z,8.88
2019-05-28T05:57:29.425Z,6.97
2019-05-28T05:58:32.338Z,9.83
2019-05-28T05:59:35.278Z,10.80
2019-05-28T06:00:38.210Z,7.60
2019-05-28T06:01:41.127Z,6.75
2019-05-28T06:02:44.014Z,7.87
2019-05-28T06:03:46.943Z,8.00
2019-05-28T06:04:50.004Z,8.73
2019-05-28T06:05:52.900Z,8.18
2019-05-28T06:06:55.750Z,8.13
2019-05-28T06:07:59.833Z,9.83
2019-05-28T06:09:05.030Z,8.00
2019-05-28T06:10:08.204Z,43.92
2019-05-28T06:11:11.098Z,11.50
2019-05-28T06:12:14.045Z,9.15
2019-05-28T06:13:16.924Z,9.95
2019-05-28T06:14:19.862Z,11.48
2019-05-28T06:15:22.813Z,10.72
2019-05-28T06:16:25.746Z,9.65
2019-05-28T06:17:28.734Z,8.03
2019-05-28T06:18:31.721Z,13.88
2019-05-28T06:19:34.634Z,8.68
2019-05-28T06:20:37.682Z,9.75
2019-05-28T06:21:40.581Z,6.95
2019-05-28T06:22:43.762Z,9.83
2019-05-28T06:23:46.693Z,9.08
2019-05-28T06:24:49.594Z,7.30
2019-05-28T06:25:52.550Z,6.40
2019-05-28T06:26:55.479Z,8.00
2019-05-28T06:27:58.374Z,7.17
2019-05-28T06:29:01.308Z,9.10
2019-05-28T06:30:05.666Z,6.80
2019-05-28T06:31:09.661Z,7.85
2019-05-28T06:32:12.677Z,9.13
2019-05-28T06:33:15.538Z,7.95
2019-05-28T06:34:18.464Z,10.55
2019-05-28T06:35:22.268Z,5.55
2019-05-28T06:36:25.204Z,10.60
2019-05-28T06:37:28.985Z,7.00
2019-05-28T06:38:31.884Z,9.25
2019-05-28T06:39:34.816Z,7.70
2019-05-28T06:40:37.765Z,8.15
2019-05-28T06:41:40.709Z,6.70
2019-05-28T06:42:43.623Z,11.33
2019-05-28T06:43:46.536Z,8.80
2019-05-28T06:44:49.536Z,7.90
2019-05-28T06:45:52.469Z,10.03
2019-05-28T06:46:55.421Z,6.50
2019-05-28T06:47:58.365Z,11.03
2019-05-28T06:49:01.303Z,12.00
2019-05-28T06:50:06.613Z,10.23
2019-05-28T06:51:09.549Z,9.88
2019-05-28T06:52:12.517Z,6.85
2019-05-28T06:53:15.493Z,7.15
2019-05-28T06:54:18.429Z,10.82
2019-05-28T06:55:21.321Z,8.68
2019-05-28T06:56:24.256Z,11.45
2019-05-28T06:57:27.305Z,9.05
2019-05-28T06:58:39.595Z,9.15
2019-05-28T06:59:34.941Z,8.83
2019-05-28T07:00:37.883Z,6.12
2019-05-28T07:01:40.782Z,8.43
2019-05-28T07:02:43.710Z,8.40
2019-05-28T07:03:46.596Z,7.42
2019-05-28T07:04:49.515Z,25.35
2019-05-28T07:06:06.449Z,12.35
2019-05-28T07:06:59.129Z,84.07
2019-05-28T07:08:02.173Z,11.53
2019-05-28T07:09:05.958Z,9.50
2019-05-28T07:10:09.065Z,8.63
2019-05-28T07:11:14.597Z,7.70
2019-05-28T07:12:18.382Z,11.60
2019-05-28T07:13:21.490Z,8.63
2019-05-28T07:14:24.422Z,7.80
2019-05-28T07:15:27.386Z,7.40
2019-05-28T07:16:30.333Z,9.35
2019-05-28T07:17:33.275Z,7.95
2019-05-28T07:18:36.190Z,8.73
2019-05-28T07:19:39.473Z,8.38
2019-05-28T07:20:42.421Z,11.75
2019-05-28T07:21:45.302Z,10.85
2019-05-28T07:22:48.258Z,11.50
2019-05-28T07:23:51.219Z,7.25
2019-05-28T07:24:54.203Z,8.55
2019-05-28T07:25:57.117Z,7.95
2019-05-28T07:27:00.054Z,8.90
2019-05-28T07:28:11.106Z,8.80
2019-05-28T07:29:08.878Z,6.00
2019-05-28T07:30:15.113Z,8.05
2019-05-28T07:31:18.040Z,15.28
2019-05-28T07:32:20.931Z,7.40
2019-05-28T07:33:23.883Z,6.75
2019-05-28T07:34:30.767Z,5.87
2019-05-28T07:35:44.735Z,6.85
2019-05-28T07:36:36.270Z,8.10
2019-05-28T07:37:39.198Z,6.08
2019-05-28T07:38:42.307Z,6.55
2019-05-28T07:39:45.295Z,6.78
2019-05-28T07:40:48.207Z,6.45
2019-05-28T07:41:51.187Z,6.10
2019-05-28T07:42:54.105Z,7.37
2019-05-28T07:43:57.034Z,7.80
2019-05-28T07:44:59.980Z,6.62
2019-05-28T07:46:02.890Z,6.17
2019-05-28T07:47:05.820Z,8.78
2019-05-28T07:48:08.789Z,7.33
2019-05-28T07:49:11.776Z,8.08
2019-05-28T07:50:14.883Z,12.23
2019-05-28T07:51:17.788Z,12.60
2019-05-28T07:52:20.821Z,9.13
2019-05-28T07:53:38.714Z,5.47
2019-05-28T07:54:28.516Z,7.65
2019-05-28T07:55:31.505Z,7.70
2019-05-28T07:56:37.336Z,7.03
2019-05-28T07:57:40.296Z,7.60
2019-05-28T07:58:43.274Z,9.38
2019-05-28T07:59:46.173Z,5.97
2019-05-28T08:00:52.086Z,10.28
2019-05-28T08:01:55.044Z,10.15
2019-05-28T08:02:57.975Z,7.95
2019-05-28T08:04:00.945Z,7.70
2019-05-28T08:05:04.526Z,6.28
2019-05-28T08:06:07.483Z,8.83
2019-05-28T08:07:10.378Z,6.97
2019-05-28T08:08:17.142Z,8.58
2019-05-28T08:09:20.150Z,10.48
2019-05-28T08:10:23.065Z,7.40
2019-05-28T08:11:26.098Z,8.98
2019-05-28T08:12:29.000Z,5.58
2019-05-28T08:13:40.623Z,8.73
2019-05-28T08:14:36.668Z,6.42
2019-05-28T08:15:39.735Z,7.90
2019-05-28T08:16:52.295Z,7.92
2019-05-28T08:17:47.435Z,8.70
2019-05-28T08:18:50.359Z,6.67
2019-05-28T08:19:53.321Z,7.42
2019-05-28T08:20:56.230Z,7.30
2019-05-28T08:21:59.296Z,8.23
2019-05-28T08:23:02.372Z,5.70
2019-05-28T08:24:05.288Z,6.40
2019-05-28T08:25:22.185Z,7.65
2019-05-28T08:26:14.875Z,5.22
2019-05-28T08:27:18.042Z,6.97
2019-05-28T08:28:20.933Z,8.93
2019-05-28T08:29:23.874Z,8.00
2019-05-28T08:30:26.936Z,6.42
2019-05-28T08:31:29.865Z,6.78
2019-05-28T08:32:32.810Z,10.25
2019-05-28T08:33:35.711Z,9.10
2019-05-28T08:34:38.689Z,11.65
2019-05-28T08:35:41.635Z,7.42
2019-05-28T08:36:44.637Z,8.18
2019-05-28T08:37:47.761Z,5.28
2019-05-28T08:38:50.729Z,5.58
2019-05-28T08:39:53.813Z,8.05
2019-05-28T08:40:59.757Z,6.30
2019-05-28T08:42:02.952Z,4.85
2019-05-28T08:43:05.878Z,7.33
2019-05-28T08:44:08.812Z,8.30
2019-05-28T08:45:12.147Z,8.80
2019-05-28T08:46:15.337Z,10.53
2019-05-28T08:47:18.483Z,10.15
2019-05-28T08:48:21.490Z,10.63
2019-05-28T08:49:27.177Z,6.33
2019-05-28T08:50:34.640Z,8.80
2019-05-28T08:51:34.923Z,9.05
2019-05-28T08:52:37.849Z,13.22
2019-05-28T08:53:41.240Z,5.28
2019-05-28T08:54:44.368Z,12.07
2019-05-28T08:55:50.116Z,11.45
2019-05-28T08:56:54.105Z,11.30
2019-05-28T08:57:57.132Z,6.97
2019-05-28T08:59:03.197Z,8.98
2019-05-28T09:00:10.372Z,7.17
2019-05-28T09:01:13.313Z,7.08
2019-05-28T09:02:28.036Z,8.03
2019-05-28T09:03:23.934Z,8.98
2019-05-28T09:04:26.841Z,15.85
2019-05-28T09:05:29.774Z,11.85
2019-05-28T09:06:32.721Z,8.65
2019-05-28T09:07:35.894Z,6.62
2019-05-28T09:08:40.222Z,12.93
2019-05-28T09:09:43.364Z,9.53
2019-05-28T09:10:46.398Z,8.35
2019-05-28T09:11:49.301Z,5.97
2019-05-28T09:12:52.245Z,9.05
2019-05-28T09:13:55.200Z,8.98
2019-05-28T09:14:58.170Z,6.22
2019-05-28T09:16:01.047Z,8.83
2019-05-28T09:17:04.735Z,7.53
2019-05-28T09:18:08.170Z,9.10
2019-05-28T09:19:11.046Z,10.60
2019-05-28T09:20:16.790Z,7.72
2019-05-28T09:21:19.714Z,10.28
2019-05-28T09:22:26.188Z,8.00
2019-05-28T09:23:27.381Z,7.40
2019-05-28T09:24:30.326Z,6.45
2019-05-28T09:25:33.276Z,9.35
2019-05-28T09:26:36.215Z,10.23
2019-05-28T09:27:39.153Z,8.33
2019-05-28T09:28:42.086Z,8.80
2019-05-28T09:29:45.026Z,4.87
2019-05-28T09:30:48.022Z,12.28
2019-05-28T09:31:50.957Z,11.33
2019-05-28T09:32:53.985Z,9.70
2019-05-28T09:33:56.913Z,12.10
2019-05-28T09:35:02.762Z,6.92
2019-05-28T09:36:08.594Z,5.10
2019-05-28T09:37:10.337Z,9.15
2019-05-28T09:38:13.353Z,6.37
2019-05-28T09:39:16.424Z,10.45
2019-05-28T09:40:19.986Z,6.25
2019-05-28T09:41:23.061Z,8.00
2019-05-28T09:42:27.010Z,6.97
2019-05-28T09:43:29.974Z,6.33
2019-05-28T09:44:32.942Z,9.38
2019-05-28T09:45:35.901Z,6.45
2019-05-28T09:46:38.913Z,9.48
2019-05-28T09:47:41.857Z,7.37
2019-05-28T09:48:44.773Z,6.33
2019-05-28T09:49:47.779Z,6.28
2019-05-28T09:50:51.939Z,6.15
2019-05-28T09:51:55.149Z,7.78
2019-05-28T09:52:58.098Z,9.85
2019-05-28T09:54:01.033Z,5.03
2019-05-28T09:55:04.594Z,6.80
2019-05-28T09:56:07.571Z,6.85
2019-05-28T09:57:10.498Z,10.13
2019-05-28T09:58:13.437Z,6.67
2019-05-28T09:59:16.742Z,7.67
2019-05-28T10:00:21.523Z,9.30
2019-05-28T10:01:24.834Z,6.50
2019-05-28T10:02:27.795Z,8.63
2019-05-28T10:03:31.182Z,6.30
2019-05-28T10:04:48.339Z,7.80
2019-05-28T10:05:39.086Z,7.40
2019-05-28T10:06:42.017Z,6.30
2019-05-28T10:07:44.941Z,9.55
2019-05-28T10:08:47.893Z,10.55
2019-05-28T10:09:53.389Z,7.10
2019-05-28T10:10:56.316Z,8.43
2019-05-28T10:11:59.654Z,6.35
2019-05-28T10:13:02.650Z,7.03
2019-05-28T10:14:05.682Z,8.60
2019-05-28T10:15:08.792Z,5.73
2019-05-28T10:16:11.786Z,5.45
2019-05-28T10:17:14.941Z,7.90
2019-05-28T10:18:18.021Z,8.75
2019-05-28T10:19:20.989Z,9.13
2019-05-28T10:20:24.086Z,7.78
2019-05-28T10:21:27.028Z,10.27
2019-05-28T10:22:30.967Z,7.77
2019-05-28T10:23:33.917Z,5.90
2019-05-28T10:24:36.898Z,10.40
2019-05-28T10:25:39.829Z,7.97
2019-05-28T10:26:42.748Z,4.78
2019-05-28T10:27:59.975Z,6.87
2019-05-28T10:28:50.762Z,7.20
2019-05-28T10:29:53.660Z,7.35
2019-05-28T10:30:56.590Z,5.60
2019-05-28T10:31:59.529Z,9.33
2019-05-28T10:33:02.564Z,10.33
2019-05-28T10:34:05.401Z,7.90
2019-05-28T10:35:09.090Z,4.77
2019-05-28T10:36:12.037Z,7.73
2019-05-28T10:37:15.157Z,9.53
2019-05-28T10:38:18.057Z,6.07
2019-05-28T10:39:20.960Z,7.72
2019-05-28T10:40:24.200Z,19.42
2019-05-28T10:41:27.131Z,11.57
2019-05-28T10:42:30.129Z,8.10
2019-05-28T10:43:33.081Z,13.60
2019-05-28T10:44:36.190Z,10.15
2019-05-28T10:45:40.241Z,12.53
2019-05-28T10:46:43.265Z,10.08
2019-05-28T10:47:46.284Z,14.00
2019-05-28T10:48:49.126Z,9.78
2019-05-28T10:49:52.137Z,10.25
2019-05-28T10:50:55.114Z,6.60
2019-05-28T10:51:58.137Z,6.83
2019-05-28T10:53:01.071Z,7.72
2019-05-28T10:54:04.177Z,7.80
2019-05-28T10:55:07.188Z,8.43
2019-05-28T10:56:10.279Z,8.80
2019-05-28T10:57:13.333Z,6.72
2019-05-28T10:58:16.360Z,5.67
2019-05-28T10:59:19.296Z,9.08
2019-05-28T11:00:23.150Z,9.73
2019-05-28T11:01:26.093Z,10.85
2019-05-28T11:02:29.026Z,7.50
2019-05-28T11:03:31.995Z,26.20
2019-05-28T11:04:35.087Z,6.47
2019-05-28T11:05:38.063Z,6.55
2019-05-28T11:06:51.347Z,6.35
2019-05-28T11:07:45.808Z,7.17
2019-05-28T11:08:48.754Z,8.50
2019-05-28T11:09:51.693Z,8.85
2019-05-28T11:10:54.559Z,7.42
2019-05-28T11:11:57.889Z,7.10
2019-05-28T11:13:00.906Z,6.25
2019-05-28T11:14:04.273Z,6.83
2019-05-28T11:15:08.780Z,6.33
2019-05-28T11:16:11.709Z,6.10
2019-05-28T11:17:14.853Z,6.20
2019-05-28T11:18:17.867Z,9.75
2019-05-28T11:19:20.757Z,7.37
2019-05-28T11:20:23.755Z,11.03
2019-05-28T11:21:26.669Z,9.80
2019-05-28T11:22:29.749Z,9.00
2019-05-28T11:23:32.689Z,5.67
2019-05-28T11:24:35.634Z,6.33
2019-05-28T11:25:38.540Z,4.37
2019-05-28T11:26:41.511Z,6.72
2019-05-28T11:27:44.481Z,7.30
2019-05-28T11:28:47.378Z,6.35
2019-05-28T11:29:50.346Z,7.50
2019-05-28T11:30:53.248Z,9.23
2019-05-28T11:31:56.188Z,8.48
2019-05-28T11:32:59.145Z,9.25
2019-05-28T11:34:02.041Z,7.47
2019-05-28T11:35:06.889Z,6.62
2019-05-28T11:36:09.798Z,10.90
2019-05-28T11:37:12.708Z,3.08
2019-05-28T11:38:15.746Z,3.77
2019-05-28T11:39:18.656Z,5.25
2019-05-28T11:40:21.761Z,9.35
2019-05-28T11:41:40.940Z,3.67
2019-05-28T11:42:29.464Z,8.18
2019-05-28T11:43:32.485Z,4.95
2019-05-28T11:44:35.402Z,7.47
2019-05-28T11:45:38.298Z,7.40
2019-05-28T11:46:41.222Z,6.10
2019-05-28T11:47:44.539Z,4.65
2019-05-28T11:48:47.489Z,7.58
2019-05-28T11:49:50.422Z,6.17
2019-05-28T11:50:53.328Z,4.65
2019-05-28T11:51:56.261Z,4.42
2019-05-28T11:52:59.260Z,8.53
2019-05-28T11:54:02.166Z,4.12
2019-05-28T11:55:09.585Z,5.22
2019-05-28T11:56:12.508Z,6.50
2019-05-28T11:57:15.592Z,4.75
2019-05-28T11:58:18.566Z,10.95
2019-05-28T11:59:21.493Z,7.42
2019-05-28T12:00:25.313Z,6.28
2019-05-28T12:01:34.268Z,5.05
2019-05-28T12:02:32.958Z,8.43
2019-05-28T12:03:35.973Z,6.92
2019-05-28T12:04:38.961Z,3.30
2019-05-28T12:05:41.924Z,4.95
2019-05-28T12:06:44.877Z,8.03
2019-05-28T12:07:51.710Z,4.28
2019-05-28T12:08:53.337Z,6.75
2019-05-28T12:09:56.362Z,5.28
2019-05-28T12:10:59.209Z,17.92
2019-05-28T12:12:02.105Z,6.42
2019-05-28T12:13:05.022Z,6.10
2019-05-28T12:14:07.978Z,6.83
2019-05-28T12:15:12.131Z,5.30
2019-05-28T12:16:15.161Z,5.75
2019-05-28T12:17:18.166Z,8.95
2019-05-28T12:18:21.192Z,5.75
2019-05-28T12:19:24.071Z,5.35
2019-05-28T12:20:28.429Z,4.65
2019-05-28T12:21:31.428Z,5.25
2019-05-28T12:22:34.439Z,28.45
2019-05-28T12:23:37.344Z,6.05
2019-05-28T12:24:43.258Z,4.90
2019-05-28T12:25:46.299Z,7.03
2019-05-28T12:26:49.283Z,6.80
2019-05-28T12:27:52.157Z,5.33
2019-05-28T12:28:55.150Z,7.62
2019-05-28T12:29:58.141Z,9.25
2019-05-28T12:31:01.085Z,5.00
2019-05-28T12:32:06.386Z,7.45
2019-05-28T12:33:10.005Z,5.05
2019-05-28T12:34:12.947Z,7.62
2019-05-28T12:35:27.386Z,6.90
2019-05-28T12:36:21.058Z,5.30
2019-05-28T12:37:23.957Z,4.80
2019-05-28T12:38:26.901Z,8.65
2019-05-28T12:39:29.848Z,8.63
2019-05-28T12:40:46.557Z,8.85
2019-05-28T12:41:37.572Z,8.98
2019-05-28T12:42:40.577Z,7.40
2019-05-28T12:43:43.526Z,5.67
2019-05-28T12:44:46.513Z,6.53
2019-05-28T12:45:49.448Z,9.60
2019-05-28T12:46:53.398Z,6.53
2019-05-28T12:48:10.183Z,5.40
2019-05-28T12:49:01.153Z,6.22
2019-05-28T12:50:18.140Z,6.80
2019-05-28T12:51:10.107Z,9.50
2019-05-28T12:52:13.055Z,8.88
2019-05-28T12:53:18.997Z,7.50
2019-05-28T12:54:21.870Z,9.75
2019-05-28T12:55:24.903Z,6.60
2019-05-28T12:56:27.814Z,6.55
2019-05-28T12:57:30.736Z,4.87
2019-05-28T12:58:42.145Z,5.60
2019-05-28T12:59:38.402Z,6.83
2019-05-28T13:00:41.544Z,6.28
2019-05-28T13:01:44.465Z,9.68
2019-05-28T13:02:48.439Z,6.17
2019-05-28T13:03:52.112Z,10.25
2019-05-28T13:04:55.065Z,8.10
2019-05-28T13:05:58.094Z,7.22
2019-05-28T13:07:01.066Z,8.95
2019-05-28T13:08:09.028Z,7.47
2019-05-28T13:09:08.831Z,7.15
2019-05-28T13:10:13.169Z,7.55
2019-05-28T13:11:16.362Z,12.18
2019-05-28T13:12:19.359Z,7.55
2019-05-28T13:13:22.350Z,8.88
2019-05-28T13:14:26.347Z,6.53
2019-05-28T13:15:29.393Z,9.70
2019-05-28T13:16:32.324Z,12.28
2019-05-28T13:17:35.258Z,7.97
2019-05-28T13:18:38.200Z,13.58
2019-05-28T13:19:41.154Z,9.35
2019-05-28T13:20:47.887Z,11.18
2019-05-28T13:21:48.804Z,9.35
2019-05-28T13:22:51.719Z,7.25
2019-05-28T13:23:54.795Z,8.48
2019-05-28T13:24:57.694Z,6.28
2019-05-28T13:26:00.610Z,6.67
2019-05-28T13:27:17.704Z,6.28
2019-05-28T13:28:08.260Z,8.25
2019-05-28T13:29:11.203Z,9.23
2019-05-28T13:30:15.028Z,6.42
2019-05-28T13:31:18.018Z,8.30
2019-05-28T13:32:20.946Z,10.53
2019-05-28T13:33:23.842Z,11.38
2019-05-28T13:34:26.838Z,11.93
2019-05-28T13:35:29.744Z,9.75
2019-05-28T13:36:32.670Z,9.38
2019-05-28T13:37:35.750Z,8.68
2019-05-28T13:38:42.551Z,8.58
2019-05-28T13:39:43.526Z,11.68
2019-05-28T13:40:46.456Z,10.82
2019-05-28T13:41:49.477Z,9.75
2019-05-28T13:42:52.592Z,8.93
2019-05-28T13:43:55.594Z,9.13
2019-05-28T13:44:58.672Z,7.55
2019-05-28T13:46:01.656Z,7.75
2019-05-28T13:47:04.720Z,8.83
2019-05-28T13:48:07.673Z,12.43
2019-05-28T13:49:10.592Z,11.35
2019-05-28T13:50:14.819Z,9.15
2019-05-28T13:51:17.752Z,12.95
2019-05-28T13:52:20.712Z,10.93
2019-05-28T13:53:29.361Z,10.13
2019-05-28T13:54:32.333Z,11.95
2019-05-28T13:55:35.338Z,7.85
2019-05-28T13:56:38.290Z,8.05
2019-05-28T13:57:41.287Z,8.13
2019-05-28T13:58:44.258Z,9.83
2019-05-28T13:59:47.208Z,9.73
2019-05-28T14:00:50.121Z,9.25
2019-05-28T14:01:53.016Z,9.53
2019-05-28T14:02:56.020Z,11.63
2019-05-28T14:03:58.909Z,11.68
2019-05-28T14:05:01.842Z,8.85
2019-05-28T14:06:04.845Z,8.98
2019-05-28T14:07:07.869Z,7.92
2019-05-28T14:08:10.818Z,7.05
2019-05-28T14:09:13.719Z,8.20
2019-05-28T14:10:17.125Z,9.48
2019-05-28T14:11:20.041Z,12.18
2019-05-28T14:12:23.037Z,14.85
2019-05-28T14:13:26.019Z,16.70
2019-05-28T14:14:29.119Z,12.70
2019-05-28T14:15:32.074Z,8.80
2019-05-28T14:16:35.042Z,8.70
2019-05-28T14:17:37.975Z,11.12
2019-05-28T14:18:40.900Z,9.60
2019-05-28T14:19:43.714Z,9.48
2019-05-28T14:20:47.649Z,9.98
2019-05-28T14:21:50.565Z,6.75
2019-05-28T14:22:53.477Z,10.28
2019-05-28T14:23:56.446Z,9.28
2019-05-28T14:24:59.389Z,10.03
2019-05-28T14:26:02.349Z,11.05
2019-05-28T14:27:05.258Z,10.28
2019-05-28T14:28:08.193Z,12.40
2019-05-28T14:29:11.122Z,11.38
2019-05-28T14:30:15.085Z,9.13
2019-05-28T14:31:18.018Z,6.97